Station: Murganella Airstrip  

  Atmospheric Gas Attenuation - ITU Rec 676-11   ----------------- dB/100km -----------------
Date Time Temp RH % AH g/m3 Dew Point Wind Direction Speed kph Gust kph Barometer mB Rainfall Since 9am 24GHz 47GHz 76GHz 122GHz 134GHz 241GHz
08/05 12:00 31.2 48 15.53 18.9 13 24 1010.9 0 33.1 31.3 56.7 149.8 159.9 555.4
08/05 11:50 30.9 46 14.65 18.2 7 9 1011 0 31.3 30.1 53.5 141.2 149.2 518.3
08/05 11:40 30.8 46 14.57 18.1 11 15 1011.1 0 31.1 30.0 53.3 140.6 148.4 515.5
08/05 11:30 31.2 48 15.53 18.9 11 24 1011.2 0 33.1 31.3 56.7 149.9 159.9 555.6
08/05 11:20 31 48 15.37 19 11 19 1011.3 0 32.8 31.2 56.2 148.6 158.3 549.8
08/05 11:10 30.5 50 15.58 18.9 6 9 1011.4 0 33.3 31.7 57.4 151.7 162.0 562.9
08/05 11:00 30.1 49 14.94 18.2 15 32 1011.5 0 32.0 30.8 55.2 145.8 154.5 536.8
08/05 10:50 29.9 48 14.48 18 19 24 1011.7 0 31.0 30.2 53.5 141.4 149.1 517.6
08/05 10:40 29.9 49 14.78 18.3 9 11 1011.8 0 31.6 30.6 54.7 144.5 152.9 531.0
08/05 10:30 30.1 50 15.25 18.8 11 26 1011.9 0 32.6 31.3 56.4 149.1 158.6 550.9
08/05 10:20 29.7 50 14.92 18.4 13 17 1011.9 0 32.0 30.9 55.4 146.3 155.1 538.7
08/05 10:10 29.2 51 14.81 18.3 9 17 1012 0 31.8 30.9 55.3 146.1 154.7 537.2
08/05 10:00 28.7 52 14.7 17.9 13 22 1012 0 31.6 30.9 55.2 145.9 154.3 535.6
08/05 09:50 29 52 14.94 18.4 13 19 1012 0 32.0 31.2 56.0 147.9 156.8 544.5
08/05 09:40 28.4 54 15.01 18.4 11 20 1012 0 32.2 31.5 56.7 149.7 158.9 551.9
08/05 09:30 28 56 15.23 18.4 11 20 1012 0 32.7 32.0 57.9 152.9 162.7 564.9
08/05 09:20 27.5 57 15.08 18.2 9 13 1012 0 32.5 32.0 57.6 152.2 161.7 561.5
08/05 09:10 27.3 61 15.96 19.1 6 7 1012 0 34.3 33.5 61.4 162.4 174.1 604.8
08/05 09:00 26.8 60 15.27 18.6 7 19 1012 0 32.9 32.6 58.9 155.7 165.8 575.6
08/05 08:50 26.1 63 15.42 18.7 9 11 1011.9 0 33.3 33.1 60.1 158.8 169.4 588.0
08/05 08:40 25.6 67 15.95 19 7 13 1011.9 0 34.4 34.2 62.8 165.8 177.9 617.7
08/05 08:30 25.3 70 16.39 19.4 6 11 1011.9 0 35.4 35.1 64.9 171.6 184.9 641.9
08/05 08:20 24.7 74 16.75 19.9 6 6 1011.9 0 36.2 36.0 67.0 177.2 191.6 665.2
08/05 08:10 23.6 83 17.65 20.5 4 6 1011.9 0 38.2 38.1 72.1 190.8 207.9 721.9
08/05 08:00 22.7 92 18.59 21.3 4 6 1011.9 0 40.3 40.3 77.5 205.0 225.1 781.6
08/05 07:50 21 100 18.32 21 2 4 1011.9 0 39.9 40.6 77.9 206.2 226.0 784.4
08/05 07:40 20 100 17.28 20 0 0 1011.8 0 37.8 39.0 73.9 195.3 212.3 736.7
08/05 07:30 19.2 100 16.49 19.2 0 0 1011.7 0 36.2 37.9 70.8 187.1 202.1 700.9
08/05 07:20 18.6 100 15.91 18.6 0 0 1011.7 0 35.0 37.0 68.6 181.2 194.6 674.8
08/05 07:10 18.6 100 15.91 18.6 0 0 1011.6 0 35.0 37.0 68.6 181.2 194.6 674.8
08/05 07:00 18.5 100 15.82 18.5 0 0 1011.4 0 34.8 36.9 68.2 180.3 193.4 670.7
08/05 06:50 18.6 100 15.91 18.6 0 0 1011.4 0 35.0 37.0 68.6 181.2 194.6 674.7
08/05 06:40 18.6 100 15.91 18.6 0 0 1011.4 0 35.0 37.0 68.6 181.2 194.6 674.7
08/05 06:30 18.6 100 15.91 18.6 0 0 1011.3 0 35.0 37.0 68.6 181.2 194.5 674.6
08/05 06:20 18.8 100 16.1 18.8 0 0 1011.4 0 35.4 37.3 69.3 183.1 197.0 683.2
08/05 06:10 19 100 16.29 19 0 0 1011.3 0 35.8 37.6 70.0 185.0 199.4 691.7
08/05 06:00 18.9 98 15.88 18.6 0 0 1011.2 0 34.9 36.8 68.1 180.0 193.3 670.3
08/05 05:50 19 99 16.13 18.8 0 0 1011.3 0 35.4 37.3 69.2 183.0 196.9 683.0
08/05 05:40 19.1 98 16.06 18.7 0 0 1011.2 0 35.3 37.1 68.8 181.8 195.6 678.2
08/05 05:30 19.2 98 16.16 18.9 0 0 1011.2 0 35.5 37.2 69.2 182.9 196.8 682.7
08/05 05:20 19.3 96 15.92 18.6 0 0 1011.2 0 34.9 36.7 68.0 179.6 192.9 668.9
08/05 05:10 19.4 94 15.68 18.5 0 0 1011.1 0 34.4 36.2 66.7 176.3 188.9 655.1
08/05 05:00 19.6 95 16.04 18.8 0 0 1011.2 0 35.2 36.8 68.3 180.4 193.9 672.7
08/05 04:50 19.8 94 16.05 18.8 0 0 1011.2 0 35.2 36.7 68.1 180.0 193.6 671.4
08/05 04:40 20 94 16.24 19 0 0 1011.1 0 35.6 37.0 68.8 181.9 196.0 679.8
08/05 04:30 20.2 93 16.26 19 0 0 1011 0 35.6 37.0 68.7 181.7 195.7 679.0
08/05 04:20 20.5 92 16.37 19.1 0 0 1011.1 0 35.8 37.0 69.0 182.4 196.6 682.2
08/05 04:10 20.7 90 16.2 19 0 0 1011.1 0 35.4 36.6 68.0 179.8 193.5 671.4
08/05 04:00 20.9 90 16.39 19.2 0 2 1011 0 35.8 36.9 68.7 181.6 195.9 679.6
08/05 03:50 21.2 87 16.12 18.9 0 0 1011 0 35.2 36.3 67.2 177.6 191.0 662.7
08/05 03:40 21.4 86 16.12 18.9 2 4 1011 0 35.2 36.2 67.0 177.1 190.5 660.9
08/05 03:30 21.6 86 16.31 19.2 2 6 1011.2 0 35.6 36.5 67.7 179.0 192.9 669.3
08/05 03:20 22 81 15.72 18.7 4 4 1011.2 0 34.3 35.2 64.7 170.9 183.1 635.2
08/05 03:10 22.2 79 15.51 18.5 2 4 1011.2 0 33.8 34.7 63.6 168.0 179.5 622.8
08/05 03:00 22.2 81 15.9 18.8 4 7 1011.2 0 34.6 35.4 65.3 172.6 185.2 642.8
08/05 02:50 22.2 80 15.71 18.7 2 4 1011.2 0 34.2 35.1 64.5 170.3 182.4 633.0
08/05 02:40 22.4 79 15.69 18.7 4 6 1011.3 0 34.2 35.0 64.2 169.7 181.7 630.4
08/05 02:30 22.5 80 15.98 18.9 4 6 1011.2 0 34.8 35.5 65.4 172.9 185.7 644.3
08/05 02:20 22.6 77 15.47 18.5 2 4 1011.2 0 33.7 34.5 63.1 166.6 178.0 617.5
08/05 02:10 22.8 77 15.65 18.7 4 4 1011.2 0 34.1 34.7 63.7 168.3 180.1 625.0
08/05 02:00 23 77 15.83 18.7 4 6 1011.2 0 34.4 35.0 64.3 170.0 182.3 632.5
08/05 01:50 23.2 76 15.8 18.7 2 4 1011.3 0 34.3 34.9 64.0 169.2 181.4 629.4
08/05 01:40 23.6 74 15.74 18.7 4 6 1011.5 0 34.2 34.6 63.5 167.7 179.6 623.2
08/05 01:30 23.6 74 15.74 18.7 6 7 1011.6 0 34.2 34.6 63.5 167.7 179.6 623.2
08/05 01:20 23.8 72 15.49 18.6 4 6 1011.7 0 33.6 34.1 62.2 164.3 175.5 609.1
08/05 01:10 23.8 72 15.49 18.6 4 6 1011.7 0 33.6 34.1 62.2 164.3 175.5 609.1
08/05 01:00 23.9 73 15.79 18.8 6 13 1011.6 0 34.3 34.6 63.4 167.6 179.6 623.3
08/05 00:50 23.9 72 15.58 18.7 6 7 1011.7 0 33.8 34.2 62.5 165.2 176.6 612.8
08/05 00:40 23.9 72 15.58 18.7 4 6 1011.9 0 33.8 34.2 62.5 165.2 176.6 612.9
08/05 00:30 23.8 74 15.92 18.9 6 9 1012.1 0 34.5 34.9 64.1 169.4 181.8 630.9
08/05 00:20 23.9 72 15.58 18.7 6 6 1012.1 0 33.8 34.2 62.5 165.2 176.6 613.0
08/05 00:10 24 72 15.66 18.8 6 9 1012.1 0 34.0 34.3 62.8 165.9 177.5 616.2
08/05 00:00 24.3 72 15.93 18.9 6 11 1012.1 0 34.5 34.7 63.7 168.4 180.7 627.3
07/05 23:50 24.1 73 15.97 19.1 7 11 1012.1 0 34.6 34.8 64.1 169.4 181.8 630.9
07/05 23:40 23.9 77 16.66 19.6 6 6 1012.1 0 36.1 36.1 67.3 178.0 192.3 667.7
07/05 23:30 23.4 82 17.24 20.2 6 11 1012.1 0 37.4 37.4 70.4 186.2 202.3 702.3
07/05 23:20 22.8 87 17.68 20.5 7 9 1012.1 0 38.4 38.5 73.1 193.2 210.7 731.3
07/05 23:10 22.4 91 18.07 20.8 6 7 1012.1 0 39.3 39.5 75.3 199.2 217.9 756.3
07/05 23:00 21.8 100 19.18 21.8 4 7 1012 0 41.7 41.9 81.4 215.3 237.4 824.2
07/05 22:50 21.9 100 19.3 21.9 2 4 1012 0 41.9 42.1 81.9 216.6 239.0 829.9
07/05 22:40 21.8 100 19.18 21.8 0 0 1012.1 0 41.7 41.9 81.4 215.3 237.4 824.2
07/05 22:30 21.9 100 19.3 21.9 0 0 1012 0 41.9 42.1 81.9 216.6 239.0 829.9
07/05 22:20 21.9 100 19.3 21.9 0 0 1012.2 0 41.9 42.1 81.9 216.6 239.1 830.0
07/05 22:10 21.9 100 19.3 21.9 0 0 1012.2 0 41.9 42.1 81.9 216.6 239.1 830.0
07/05 22:00 22 99 19.21 21.8 0 0 1012.2 0 41.7 41.9 81.3 215.1 237.3 823.8
07/05 21:50 22.1 99 19.32 21.9 0 0 1012.2 0 42.0 42.1 81.7 216.3 238.7 828.9
07/05 21:40 22.2 97 19.04 21.7 0 0 1012.3 0 41.4 41.5 80.3 212.3 233.9 812.1
07/05 21:30 22.2 97 19.04 21.7 0 0 1012.3 0 41.4 41.5 80.3 212.3 233.9 812.1
07/05 21:20 22.3 97 19.15 21.8 0 0 1012.3 0 41.6 41.6 80.7 213.5 235.4 817.2
07/05 21:10 22.5 97 19.37 22 0 0 1012.2 0 42.0 41.9 81.6 215.8 238.3 827.3
07/05 21:00 22.7 96 19.39 22 0 0 1012.2 0 42.0 41.9 81.4 215.5 237.9 826.2
07/05 20:50 22.7 95 19.19 21.8 0 0 1012.2 0 41.6 41.5 80.5 212.8 234.7 815.0
07/05 20:40 22.8 96 19.51 22.1 0 0 1012.1 0 42.3 42.1 81.9 216.7 239.5 831.7
07/05 20:30 23 95 19.52 22.2 0 0 1012 0 42.3 42.0 81.7 216.3 239.0 830.0
07/05 20:20 23.1 93 19.22 22 0 0 1011.9 0 41.6 41.3 80.1 212.0 233.9 812.1
07/05 20:10 23.3 93 19.44 22.1 0 0 1011.8 0 42.1 41.7 81.0 214.3 236.7 822.1
07/05 20:00 23.4 91 19.13 21.8 0 0 1011.6 0 41.4 41.0 79.4 210.0 231.5 803.8
07/05 19:50 23.6 91 19.35 22 0 0 1011.6 0 41.9 41.3 80.2 212.3 234.3 813.7
07/05 19:40 23.8 88 18.93 21.8 0 0 1011.4 0 40.9 40.4 78.0 206.3 227.0 788.4
07/05 19:30 24 89 19.36 22.1 0 0 1011.3 0 41.8 41.1 79.8 211.2 233.2 809.8

Last Refresh: 08-May-2026 12:08:28

Bureau of Meteorology